sensor_id;sensor_type;location;lat;lon;timestamp;pressure;altitude;pressure_sealevel;temperature;humidity
76864;BME280;65834;52.364;9.754;2023-05-10T00:00:16;100089.00;;;15.54;45.76
76864;BME280;65834;52.364;9.754;2023-05-10T00:02:49;100088.06;;;15.60;45.34
76864;BME280;65834;52.364;9.754;2023-05-10T00:05:19;100087.50;;;15.58;45.37
76864;BME280;65834;52.364;9.754;2023-05-10T00:07:49;100084.19;;;15.56;45.33
76864;BME280;65834;52.364;9.754;2023-05-10T00:10:18;100076.38;;;15.59;45.62
76864;BME280;65834;52.364;9.754;2023-05-10T00:12:48;100081.09;;;15.64;46.10
76864;BME280;65834;52.364;9.754;2023-05-10T00:15:17;100074.22;;;15.61;46.12
76864;BME280;65834;52.364;9.754;2023-05-10T00:17:49;100073.16;;;15.62;45.72
76864;BME280;65834;52.364;9.754;2023-05-10T00:20:19;100069.59;;;15.62;45.68
76864;BME280;65834;52.364;9.754;2023-05-10T00:22:48;100068.66;;;15.56;45.72
76864;BME280;65834;52.364;9.754;2023-05-10T00:25:18;100066.72;;;15.57;46.25
76864;BME280;65834;52.364;9.754;2023-05-10T00:27:48;100064.25;;;15.55;46.09
76864;BME280;65834;52.364;9.754;2023-05-10T00:30:17;100060.69;;;15.55;46.24
76864;BME280;65834;52.364;9.754;2023-05-10T00:32:49;100059.50;;;15.51;46.21
76864;BME280;65834;52.364;9.754;2023-05-10T00:35:19;100059.81;;;15.43;46.57
76864;BME280;65834;52.364;9.754;2023-05-10T00:37:49;100058.06;;;15.48;46.76
76864;BME280;65834;52.364;9.754;2023-05-10T00:40:19;100047.59;;;15.45;46.67
76864;BME280;65834;52.364;9.754;2023-05-10T00:42:54;100057.28;;;15.41;46.51
76864;BME280;65834;52.364;9.754;2023-05-10T00:45:24;100049.84;;;15.37;46.56
76864;BME280;65834;52.364;9.754;2023-05-10T00:47:56;100055.28;;;15.37;47.20
76864;BME280;65834;52.364;9.754;2023-05-10T00:50:26;100055.88;;;15.39;46.97
76864;BME280;65834;52.364;9.754;2023-05-10T00:52:56;100049.84;;;15.37;47.17
76864;BME280;65834;52.364;9.754;2023-05-10T00:55:26;100046.97;;;15.32;47.23
76864;BME280;65834;52.364;9.754;2023-05-10T00:57:55;100045.06;;;15.32;47.02
76864;BME280;65834;52.364;9.754;2023-05-10T01:00:25;100044.47;;;15.30;47.11
76864;BME280;65834;52.364;9.754;2023-05-10T01:02:58;100046.00;;;15.26;47.30
76864;BME280;65834;52.364;9.754;2023-05-10T01:05:28;100039.50;;;15.27;47.29
76864;BME280;65834;52.364;9.754;2023-05-10T01:07:58;100041.38;;;15.27;47.50
76864;BME280;65834;52.364;9.754;2023-05-10T01:10:29;100034.75;;;15.23;47.45
76864;BME280;65834;52.364;9.754;2023-05-10T01:12:59;100038.63;;;15.15;47.88
76864;BME280;65834;52.364;9.754;2023-05-10T01:15:30;100034.22;;;15.14;47.92
76864;BME280;65834;52.364;9.754;2023-05-10T01:18:03;100039.00;;;15.18;48.09
76864;BME280;65834;52.364;9.754;2023-05-10T01:20:40;100029.03;;;15.12;48.35
76864;BME280;65834;52.364;9.754;2023-05-10T01:23:30;100032.34;;;15.14;47.96
76864;BME280;65834;52.364;9.754;2023-05-10T01:26:18;100034.94;;;15.09;48.26
76864;BME280;65834;52.364;9.754;2023-05-10T01:32:14;100039.50;;;14.97;48.66
76864;BME280;65834;52.364;9.754;2023-05-10T01:34:54;100037.91;;;14.90;48.85
76864;BME280;65834;52.364;9.754;2023-05-10T01:37:36;100037.69;;;14.91;48.94
76864;BME280;65834;52.364;9.754;2023-05-10T01:40:23;100038.88;;;14.95;49.01
76864;BME280;65834;52.364;9.754;2023-05-10T01:42:59;100043.16;;;14.91;49.25
76864;BME280;65834;52.364;9.754;2023-05-10T01:45:32;100036.03;;;14.90;49.31
76864;BME280;65834;52.364;9.754;2023-05-10T01:48:08;100031.88;;;14.88;49.52
76864;BME280;65834;52.364;9.754;2023-05-10T01:50:43;100025.50;;;14.94;49.39
76864;BME280;65834;52.364;9.754;2023-05-10T01:53:17;100027.41;;;14.93;49.65
76864;BME280;65834;52.364;9.754;2023-05-10T01:55:51;100031.28;;;14.86;49.94
76864;BME280;65834;52.364;9.754;2023-05-10T01:58:25;100033.09;;;14.74;49.91
76864;BME280;65834;52.364;9.754;2023-05-10T02:00:58;100026.06;;;14.84;49.92
76864;BME280;65834;52.364;9.754;2023-05-10T02:03:32;100029.69;;;14.78;50.14
76864;BME280;65834;52.364;9.754;2023-05-10T02:06:05;100032.38;;;14.67;50.49
76864;BME280;65834;52.364;9.754;2023-05-10T02:08:35;100035.22;;;14.72;50.74
76864;BME280;65834;52.364;9.754;2023-05-10T02:11:05;100030.09;;;14.63;50.55
76864;BME280;65834;52.364;9.754;2023-05-10T02:13:36;100028.69;;;14.61;50.80
76864;BME280;65834;52.364;9.754;2023-05-10T02:16:07;100028.28;;;14.57;51.19
76864;BME280;65834;52.364;9.754;2023-05-10T02:18:40;100026.53;;;14.63;50.79
76864;BME280;65834;52.364;9.754;2023-05-10T02:21:10;100026.63;;;14.56;51.16
76864;BME280;65834;52.364;9.754;2023-05-10T02:23:42;100030.56;;;14.60;51.23
76864;BME280;65834;52.364;9.754;2023-05-10T02:26:13;100026.31;;;14.64;51.04
76864;BME280;65834;52.364;9.754;2023-05-10T02:28:43;100027.84;;;14.60;51.46
76864;BME280;65834;52.364;9.754;2023-05-10T02:31:14;100031.69;;;14.53;51.36
76864;BME280;65834;52.364;9.754;2023-05-10T02:33:48;100019.13;;;14.52;51.85
76864;BME280;65834;52.364;9.754;2023-05-10T02:36:19;100031.16;;;14.44;51.80
76864;BME280;65834;52.364;9.754;2023-05-10T02:38:51;100026.09;;;14.48;51.95
76864;BME280;65834;52.364;9.754;2023-05-10T02:41:23;100033.34;;;14.54;51.91
76864;BME280;65834;52.364;9.754;2023-05-10T02:43:57;100024.34;;;14.53;51.99
76864;BME280;65834;52.364;9.754;2023-05-10T02:46:29;100031.59;;;14.59;51.92
76864;BME280;65834;52.364;9.754;2023-05-10T02:49:03;100025.31;;;14.59;52.07
76864;BME280;65834;52.364;9.754;2023-05-10T02:51:35;100022.09;;;14.50;52.04
76864;BME280;65834;52.364;9.754;2023-05-10T02:54:10;100019.81;;;14.47;52.39
76864;BME280;65834;52.364;9.754;2023-05-10T02:56:44;100021.13;;;14.45;52.18
76864;BME280;65834;52.364;9.754;2023-05-10T02:59:16;100030.25;;;14.50;52.28
76864;BME280;65834;52.364;9.754;2023-05-10T03:01:46;100018.91;;;14.53;52.41
76864;BME280;65834;52.364;9.754;2023-05-10T03:04:18;100021.25;;;14.50;52.51
76864;BME280;65834;52.364;9.754;2023-05-10T03:06:48;100020.66;;;14.48;52.46
76864;BME280;65834;52.364;9.754;2023-05-10T03:09:17;100021.31;;;14.43;52.64
76864;BME280;65834;52.364;9.754;2023-05-10T03:11:55;100020.88;;;14.46;53.01
76864;BME280;65834;52.364;9.754;2023-05-10T03:14:42;100016.84;;;14.49;52.69
76864;BME280;65834;52.364;9.754;2023-05-10T03:17:15;100015.22;;;14.48;53.12
76864;BME280;65834;52.364;9.754;2023-05-10T03:19:53;100018.41;;;14.45;53.53
76864;BME280;65834;52.364;9.754;2023-05-10T03:22:27;100014.69;;;14.39;53.89
76864;BME280;65834;52.364;9.754;2023-05-10T03:25:00;100019.50;;;14.37;54.01
76864;BME280;65834;52.364;9.754;2023-05-10T03:27:35;100015.59;;;14.33;54.60
76864;BME280;65834;52.364;9.754;2023-05-10T03:30:08;100014.91;;;14.38;54.48
76864;BME280;65834;52.364;9.754;2023-05-10T03:32:37;100008.41;;;14.39;54.82
76864;BME280;65834;52.364;9.754;2023-05-10T03:35:12;100009.84;;;14.41;54.60
76864;BME280;65834;52.364;9.754;2023-05-10T03:37:43;100012.06;;;14.33;55.39
76864;BME280;65834;52.364;9.754;2023-05-10T03:40:13;100016.84;;;14.31;55.65
76864;BME280;65834;52.364;9.754;2023-05-10T03:42:44;100008.47;;;14.32;56.29
76864;BME280;65834;52.364;9.754;2023-05-10T03:45:13;100010.19;;;14.27;56.33
76864;BME280;65834;52.364;9.754;2023-05-10T03:47:42;100005.81;;;14.26;56.71
76864;BME280;65834;52.364;9.754;2023-05-10T03:50:15;100010.72;;;14.17;57.16
76864;BME280;65834;52.364;9.754;2023-05-10T03:52:45;100019.03;;;14.22;56.99
76864;BME280;65834;52.364;9.754;2023-05-10T03:55:14;100011.19;;;14.14;57.65
76864;BME280;65834;52.364;9.754;2023-05-10T03:57:44;100016.22;;;14.10;58.03
76864;BME280;65834;52.364;9.754;2023-05-10T04:00:16;100015.78;;;14.13;57.67
76864;BME280;65834;52.364;9.754;2023-05-10T04:02:49;100017.91;;;14.11;57.94
76864;BME280;65834;52.364;9.754;2023-05-10T04:05:22;100013.19;;;14.19;57.74
76864;BME280;65834;52.364;9.754;2023-05-10T04:07:52;100014.94;;;14.13;58.34
76864;BME280;65834;52.364;9.754;2023-05-10T04:10:21;100012.53;;;14.05;58.68
76864;BME280;65834;52.364;9.754;2023-05-10T04:12:51;100012.47;;;14.11;58.43
76864;BME280;65834;52.364;9.754;2023-05-10T04:15:20;100013.00;;;14.20;57.96
76864;BME280;65834;52.364;9.754;2023-05-10T04:17:50;100014.56;;;14.09;59.43
76864;BME280;65834;52.364;9.754;2023-05-10T04:20:22;100017.22;;;14.16;58.57
76864;BME280;65834;52.364;9.754;2023-05-10T04:22:52;100012.81;;;14.15;58.73
76864;BME280;65834;52.364;9.754;2023-05-10T04:25:22;100017.91;;;14.11;58.99
76864;BME280;65834;52.364;9.754;2023-05-10T04:27:51;100018.56;;;14.07;59.18
76864;BME280;65834;52.364;9.754;2023-05-10T04:30:21;100016.59;;;13.96;60.24
76864;BME280;65834;52.364;9.754;2023-05-10T04:32:50;100024.91;;;14.01;59.97
76864;BME280;65834;52.364;9.754;2023-05-10T04:35:22;100020.06;;;14.03;60.15
76864;BME280;65834;52.364;9.754;2023-05-10T04:37:52;100023.84;;;14.02;60.35
76864;BME280;65834;52.364;9.754;2023-05-10T04:40:22;100020.16;;;13.96;60.97
76864;BME280;65834;52.364;9.754;2023-05-10T04:42:51;100028.91;;;13.98;60.99
76864;BME280;65834;52.364;9.754;2023-05-10T04:45:21;100026.63;;;13.95;61.67
76864;BME280;65834;52.364;9.754;2023-05-10T04:47:50;100027.53;;;13.89;62.42
76864;BME280;65834;52.364;9.754;2023-05-10T04:50:22;100021.72;;;13.86;62.11
76864;BME280;65834;52.364;9.754;2023-05-10T04:52:52;100021.06;;;13.90;62.04
76864;BME280;65834;52.364;9.754;2023-05-10T04:55:22;100022.69;;;13.91;62.14
76864;BME280;65834;52.364;9.754;2023-05-10T04:57:51;100026.91;;;13.87;62.58
76864;BME280;65834;52.364;9.754;2023-05-10T05:00:23;100033.88;;;13.83;63.16
76864;BME280;65834;52.364;9.754;2023-05-10T05:02:52;100036.91;;;13.93;63.28
76864;BME280;65834;52.364;9.754;2023-05-10T05:05:25;100052.00;;;13.89;63.91
76864;BME280;65834;52.364;9.754;2023-05-10T05:07:54;100043.94;;;14.01;62.77
76864;BME280;65834;52.364;9.754;2023-05-10T05:10:23;100034.00;;;13.88;63.39
76864;BME280;65834;52.364;9.754;2023-05-10T05:12:53;100043.50;;;13.79;64.45
76864;BME280;65834;52.364;9.754;2023-05-10T05:15:22;100057.88;;;13.86;64.21
76864;BME280;65834;52.364;9.754;2023-05-10T05:17:52;100076.06;;;13.86;65.03
76864;BME280;65834;52.364;9.754;2023-05-10T05:20:22;100069.69;;;13.74;66.14
76864;BME280;65834;52.364;9.754;2023-05-10T05:22:54;100074.09;;;13.75;65.46
76864;BME280;65834;52.364;9.754;2023-05-10T05:25:23;100085.22;;;13.91;65.48
76864;BME280;65834;52.364;9.754;2023-05-10T05:27:53;100092.78;;;13.89;66.04
76864;BME280;65834;52.364;9.754;2023-05-10T05:30:22;100092.09;;;13.94;66.22
76864;BME280;65834;52.364;9.754;2023-05-10T05:32:52;100093.13;;;13.99;66.61
76864;BME280;65834;52.364;9.754;2023-05-10T05:35:21;100095.91;;;13.93;66.83
76864;BME280;65834;52.364;9.754;2023-05-10T05:37:53;100094.16;;;13.98;66.74
76864;BME280;65834;52.364;9.754;2023-05-10T05:40:23;100092.03;;;14.00;67.10
76864;BME280;65834;52.364;9.754;2023-05-10T05:42:52;100099.75;;;13.79;67.83
76864;BME280;65834;52.364;9.754;2023-05-10T05:45:22;100094.66;;;13.64;67.79
76864;BME280;65834;52.364;9.754;2023-05-10T05:47:51;100099.72;;;13.85;66.84
76864;BME280;65834;52.364;9.754;2023-05-10T05:50:21;100099.50;;;13.87;68.14
76864;BME280;65834;52.364;9.754;2023-05-10T05:52:50;100102.09;;;14.00;67.50
76864;BME280;65834;52.364;9.754;2023-05-10T05:55:22;100107.53;;;14.00;67.48
76864;BME280;65834;52.364;9.754;2023-05-10T05:57:52;100107.75;;;13.98;67.74
76864;BME280;65834;52.364;9.754;2023-05-10T06:00:21;100100.25;;;13.94;67.68
76864;BME280;65834;52.364;9.754;2023-05-10T06:02:51;100113.91;;;13.87;68.77
76864;BME280;65834;52.364;9.754;2023-05-10T06:05:21;100108.47;;;13.87;68.14
76864;BME280;65834;52.364;9.754;2023-05-10T06:07:50;100108.16;;;13.77;68.05
76864;BME280;65834;52.364;9.754;2023-05-10T06:10:22;100109.34;;;13.81;69.65
76864;BME280;65834;52.364;9.754;2023-05-10T06:12:52;100115.78;;;13.93;68.95
76864;BME280;65834;52.364;9.754;2023-05-10T06:15:21;100114.63;;;14.01;69.04
76864;BME280;65834;52.364;9.754;2023-05-10T06:17:51;100119.88;;;14.02;68.74
76864;BME280;65834;52.364;9.754;2023-05-10T06:20:20;100119.03;;;14.02;68.47
76864;BME280;65834;52.364;9.754;2023-05-10T06:22:50;100116.25;;;14.08;68.71
76864;BME280;65834;52.364;9.754;2023-05-10T06:25:22;100114.88;;;13.99;70.08
76864;BME280;65834;52.364;9.754;2023-05-10T06:27:51;100120.53;;;13.98;70.28
76864;BME280;65834;52.364;9.754;2023-05-10T06:30:24;100128.84;;;14.03;69.93
76864;BME280;65834;52.364;9.754;2023-05-10T06:32:56;100133.03;;;14.05;69.82
76864;BME280;65834;52.364;9.754;2023-05-10T06:35:26;100134.06;;;14.04;69.74
76864;BME280;65834;52.364;9.754;2023-05-10T06:37:56;100135.59;;;13.94;70.98
76864;BME280;65834;52.364;9.754;2023-05-10T06:40:28;100134.56;;;13.95;71.38
76864;BME280;65834;52.364;9.754;2023-05-10T06:42:57;100139.56;;;13.98;71.81
76864;BME280;65834;52.364;9.754;2023-05-10T06:45:27;100142.22;;;14.04;71.63
76864;BME280;65834;52.364;9.754;2023-05-10T06:47:56;100142.22;;;14.04;71.62
76864;BME280;65834;52.364;9.754;2023-05-10T06:50:26;100134.22;;;14.09;71.44
76864;BME280;65834;52.364;9.754;2023-05-10T06:52:56;100145.94;;;14.10;71.67
76864;BME280;65834;52.364;9.754;2023-05-10T06:55:28;100146.97;;;14.09;72.21
76864;BME280;65834;52.364;9.754;2023-05-10T06:57:57;100150.22;;;13.99;72.30
76864;BME280;65834;52.364;9.754;2023-05-10T07:00:27;100144.09;;;14.04;72.15
76864;BME280;65834;52.364;9.754;2023-05-10T07:02:57;100154.78;;;14.05;72.58
76864;BME280;65834;52.364;9.754;2023-05-10T07:05:26;100152.63;;;14.14;71.79
76864;BME280;65834;52.364;9.754;2023-05-10T07:07:56;100158.25;;;14.12;72.03
76864;BME280;65834;52.364;9.754;2023-05-10T07:10:29;100157.06;;;14.08;72.31
76864;BME280;65834;52.364;9.754;2023-05-10T07:12:58;100168.50;;;14.17;72.44
76864;BME280;65834;52.364;9.754;2023-05-10T07:15:28;100164.69;;;14.18;72.84
76864;BME280;65834;52.364;9.754;2023-05-10T07:17:58;100165.09;;;14.22;72.88
76864;BME280;65834;52.364;9.754;2023-05-10T07:20:27;100173.53;;;14.13;73.48
76864;BME280;65834;52.364;9.754;2023-05-10T07:22:57;100170.09;;;14.25;72.76
76864;BME280;65834;52.364;9.754;2023-05-10T07:25:29;100174.09;;;14.22;73.21
76864;BME280;65834;52.364;9.754;2023-05-10T07:27:59;100174.63;;;14.06;73.83
76864;BME280;65834;52.364;9.754;2023-05-10T07:30:28;100176.41;;;14.19;73.19
76864;BME280;65834;52.364;9.754;2023-05-10T07:32:57;100186.66;;;14.23;73.78
76864;BME280;65834;52.364;9.754;2023-05-10T07:35:27;100184.97;;;14.22;73.39
76864;BME280;65834;52.364;9.754;2023-05-10T07:37:57;100188.97;;;14.20;74.04
76864;BME280;65834;52.364;9.754;2023-05-10T07:40:29;100190.19;;;14.24;74.36
76864;BME280;65834;52.364;9.754;2023-05-10T07:42:59;100192.78;;;14.12;75.36
76864;BME280;65834;52.364;9.754;2023-05-10T07:45:29;100196.34;;;14.12;74.99
76864;BME280;65834;52.364;9.754;2023-05-10T07:47:59;100194.41;;;14.20;74.81
76864;BME280;65834;52.364;9.754;2023-05-10T07:50:31;100199.00;;;14.19;75.30
76864;BME280;65834;52.364;9.754;2023-05-10T07:53:00;100209.84;;;14.26;74.74
76864;BME280;65834;52.364;9.754;2023-05-10T07:55:33;100209.28;;;14.17;75.61
76864;BME280;65834;52.364;9.754;2023-05-10T07:58:02;100206.34;;;14.19;75.59
76864;BME280;65834;52.364;9.754;2023-05-10T08:00:32;100217.44;;;14.17;75.55
76864;BME280;65834;52.364;9.754;2023-05-10T08:03:01;100214.06;;;14.22;75.54
76864;BME280;65834;52.364;9.754;2023-05-10T08:05:31;100214.50;;;14.19;76.74
76864;BME280;65834;52.364;9.754;2023-05-10T08:08:01;100219.94;;;14.19;76.46
76864;BME280;65834;52.364;9.754;2023-05-10T08:10:33;100224.03;;;14.34;75.88
76864;BME280;65834;52.364;9.754;2023-05-10T08:13:02;100227.16;;;14.38;75.52
76864;BME280;65834;52.364;9.754;2023-05-10T08:15:32;100230.47;;;14.40;75.59
76864;BME280;65834;52.364;9.754;2023-05-10T08:18:02;100238.81;;;14.45;76.53
76864;BME280;65834;52.364;9.754;2023-05-10T08:20:31;100241.75;;;14.43;77.03
76864;BME280;65834;52.364;9.754;2023-05-10T08:23:01;100254.06;;;14.46;77.34
76864;BME280;65834;52.364;9.754;2023-05-10T08:25:35;100249.41;;;14.53;76.84
76864;BME280;65834;52.364;9.754;2023-05-10T08:28:04;100255.25;;;14.56;76.93
76864;BME280;65834;52.364;9.754;2023-05-10T08:30:37;100251.50;;;14.57;77.07
76864;BME280;65834;52.364;9.754;2023-05-10T08:33:06;100262.31;;;14.64;76.52
76864;BME280;65834;52.364;9.754;2023-05-10T08:35:36;100252.47;;;14.63;76.98
76864;BME280;65834;52.364;9.754;2023-05-10T08:38:05;100256.00;;;14.70;76.46
76864;BME280;65834;52.364;9.754;2023-05-10T08:40:38;100248.56;;;14.77;76.68
76864;BME280;65834;52.364;9.754;2023-05-10T08:43:11;100258.91;;;14.69;77.39
76864;BME280;65834;52.364;9.754;2023-05-10T08:45:43;100257.81;;;14.76;76.08
76864;BME280;65834;52.364;9.754;2023-05-10T08:48:15;100261.69;;;14.87;75.77
76864;BME280;65834;52.364;9.754;2023-05-10T08:50:44;100265.84;;;14.89;76.66
76864;BME280;65834;52.364;9.754;2023-05-10T08:53:16;100275.69;;;14.90;76.05
76864;BME280;65834;52.364;9.754;2023-05-10T08:55:48;100270.84;;;14.92;75.56
76864;BME280;65834;52.364;9.754;2023-05-10T08:58:19;100272.97;;;14.90;76.91
76864;BME280;65834;52.364;9.754;2023-05-10T09:00:49;100281.91;;;14.97;75.91
76864;BME280;65834;52.364;9.754;2023-05-10T09:03:20;100287.19;;;14.92;77.08
76864;BME280;65834;52.364;9.754;2023-05-10T09:05:49;100290.97;;;14.91;77.04
76864;BME280;65834;52.364;9.754;2023-05-10T09:08:19;100292.88;;;14.91;76.39
76864;BME280;65834;52.364;9.754;2023-05-10T09:10:54;100294.31;;;14.93;75.28
76864;BME280;65834;52.364;9.754;2023-05-10T09:13:24;100303.97;;;14.89;75.97
76864;BME280;65834;52.364;9.754;2023-05-10T09:15:54;100308.31;;;14.97;75.16
76864;BME280;65834;52.364;9.754;2023-05-10T09:18:32;100305.97;;;15.00;74.22
76864;BME280;65834;52.364;9.754;2023-05-10T09:21:02;100305.53;;;15.03;75.15
76864;BME280;65834;52.364;9.754;2023-05-10T09:23:31;100310.91;;;15.10;74.85
76864;BME280;65834;52.364;9.754;2023-05-10T09:26:04;100316.81;;;15.07;74.58
76864;BME280;65834;52.364;9.754;2023-05-10T09:28:34;100320.50;;;14.94;74.24
76864;BME280;65834;52.364;9.754;2023-05-10T09:31:19;100321.47;;;15.00;74.45
76864;BME280;65834;52.364;9.754;2023-05-10T09:33:49;100331.88;;;15.09;74.71
76864;BME280;65834;52.364;9.754;2023-05-10T09:36:19;100327.84;;;15.12;75.08
76864;BME280;65834;52.364;9.754;2023-05-10T09:38:51;100329.16;;;15.09;75.16
76864;BME280;65834;52.364;9.754;2023-05-10T09:41:24;100332.84;;;15.15;74.40
76864;BME280;65834;52.364;9.754;2023-05-10T09:43:55;100336.03;;;15.12;75.09
76864;BME280;65834;52.364;9.754;2023-05-10T09:46:25;100340.78;;;15.16;75.38
76864;BME280;65834;52.364;9.754;2023-05-10T09:48:55;100342.41;;;15.24;74.42
76864;BME280;65834;52.364;9.754;2023-05-10T09:51:25;100350.59;;;15.24;74.63
76864;BME280;65834;52.364;9.754;2023-05-10T09:54:09;100348.25;;;15.28;74.69
76864;BME280;65834;52.364;9.754;2023-05-10T09:56:42;100349.69;;;15.30;74.72
76864;BME280;65834;52.364;9.754;2023-05-10T09:59:11;100344.63;;;15.34;74.02
76864;BME280;65834;52.364;9.754;2023-05-10T10:01:41;100357.41;;;15.33;74.00
76864;BME280;65834;52.364;9.754;2023-05-10T10:04:11;100360.06;;;15.40;74.49
76864;BME280;65834;52.364;9.754;2023-05-10T10:06:41;100362.03;;;15.33;74.23
76864;BME280;65834;52.364;9.754;2023-05-10T10:09:11;100362.56;;;15.41;73.29
76864;BME280;65834;52.364;9.754;2023-05-10T10:11:43;100370.53;;;15.43;73.45
76864;BME280;65834;52.364;9.754;2023-05-10T10:14:12;100372.59;;;15.47;74.64
76864;BME280;65834;52.364;9.754;2023-05-10T10:16:42;100364.22;;;15.49;73.06
76864;BME280;65834;52.364;9.754;2023-05-10T10:19:32;100371.09;;;15.51;74.04
76864;BME280;65834;52.364;9.754;2023-05-10T10:22:03;100373.59;;;15.53;72.77
76864;BME280;65834;52.364;9.754;2023-05-10T10:24:32;100374.59;;;15.58;73.35
76864;BME280;65834;52.364;9.754;2023-05-10T10:27:11;100369.13;;;15.58;72.93
76864;BME280;65834;52.364;9.754;2023-05-10T10:29:57;100373.44;;;15.66;72.59
76864;BME280;65834;52.364;9.754;2023-05-10T10:32:35;100374.53;;;15.65;72.15
76864;BME280;65834;52.364;9.754;2023-05-10T10:35:08;100374.06;;;15.68;72.59
76864;BME280;65834;52.364;9.754;2023-05-10T10:37:43;100374.66;;;15.70;72.32
76864;BME280;65834;52.364;9.754;2023-05-10T10:40:26;100372.78;;;15.70;72.06
76864;BME280;65834;52.364;9.754;2023-05-10T10:43:22;100373.75;;;15.76;73.33
76864;BME280;65834;52.364;9.754;2023-05-10T10:46:09;100372.25;;;15.80;72.22
76864;BME280;65834;52.364;9.754;2023-05-10T10:48:39;100376.63;;;15.81;72.05
76864;BME280;65834;52.364;9.754;2023-05-10T10:51:09;100375.97;;;15.86;72.41
76864;BME280;65834;52.364;9.754;2023-05-10T10:53:39;100374.66;;;15.88;71.73
76864;BME280;65834;52.364;9.754;2023-05-10T10:56:11;100378.03;;;15.90;71.48
76864;BME280;65834;52.364;9.754;2023-05-10T10:58:48;100374.84;;;15.93;70.39
76864;BME280;65834;52.364;9.754;2023-05-10T11:01:20;100377.09;;;15.96;71.05
76864;BME280;65834;52.364;9.754;2023-05-10T11:04:17;100375.81;;;15.99;71.57
76864;BME280;65834;52.364;9.754;2023-05-10T11:06:46;100377.84;;;16.03;70.98
76864;BME280;65834;52.364;9.754;2023-05-10T11:09:16;100373.81;;;16.06;71.12
76864;BME280;65834;52.364;9.754;2023-05-10T11:11:51;100372.53;;;16.08;69.72
76864;BME280;65834;52.364;9.754;2023-05-10T11:14:25;100374.44;;;16.08;69.88
76864;BME280;65834;52.364;9.754;2023-05-10T11:16:54;100375.28;;;16.08;68.88
76864;BME280;65834;52.364;9.754;2023-05-10T11:19:27;100377.16;;;16.08;68.57
76864;BME280;65834;52.364;9.754;2023-05-10T11:22:12;100382.28;;;16.16;69.12
76864;BME280;65834;52.364;9.754;2023-05-10T11:24:56;100381.38;;;16.22;69.15
76864;BME280;65834;52.364;9.754;2023-05-10T11:27:25;100388.88;;;16.26;67.96
76864;BME280;65834;52.364;9.754;2023-05-10T11:29:58;100382.97;;;16.30;67.95
76864;BME280;65834;52.364;9.754;2023-05-10T11:32:30;100378.56;;;16.28;67.44
76864;BME280;65834;52.364;9.754;2023-05-10T11:35:06;100383.69;;;16.37;68.00
76864;BME280;65834;52.364;9.754;2023-05-10T11:37:36;100386.88;;;16.34;67.40
76864;BME280;65834;52.364;9.754;2023-05-10T11:40:08;100389.16;;;16.37;67.62
76864;BME280;65834;52.364;9.754;2023-05-10T11:42:38;100386.41;;;16.37;68.20
76864;BME280;65834;52.364;9.754;2023-05-10T11:45:10;100389.31;;;16.42;67.46
76864;BME280;65834;52.364;9.754;2023-05-10T11:47:40;100387.09;;;16.50;67.17
76864;BME280;65834;52.364;9.754;2023-05-10T11:50:10;100385.59;;;16.54;66.99
76864;BME280;65834;52.364;9.754;2023-05-10T11:52:40;100385.03;;;16.64;66.54
76864;BME280;65834;52.364;9.754;2023-05-10T11:55:10;100398.53;;;16.59;67.32
76864;BME280;65834;52.364;9.754;2023-05-10T11:57:41;100401.44;;;16.64;67.10
76864;BME280;65834;52.364;9.754;2023-05-10T12:00:15;100396.66;;;16.71;66.89
76864;BME280;65834;52.364;9.754;2023-05-10T12:02:45;100389.09;;;16.73;66.97
76864;BME280;65834;52.364;9.754;2023-05-10T12:05:16;100391.50;;;16.81;66.56
76864;BME280;65834;52.364;9.754;2023-05-10T12:07:45;100388.75;;;16.81;66.73
76864;BME280;65834;52.364;9.754;2023-05-10T12:10:15;100382.16;;;17.00;65.05
76864;BME280;65834;52.364;9.754;2023-05-10T12:12:46;100382.97;;;17.01;65.51
76864;BME280;65834;52.364;9.754;2023-05-10T12:15:21;100386.78;;;17.11;65.32
76864;BME280;65834;52.364;9.754;2023-05-10T12:17:51;100389.19;;;17.19;64.26
76864;BME280;65834;52.364;9.754;2023-05-10T12:20:22;100391.78;;;17.14;64.63
76864;BME280;65834;52.364;9.754;2023-05-10T12:22:54;100391.94;;;17.19;64.15
76864;BME280;65834;52.364;9.754;2023-05-10T12:25:30;100404.13;;;17.17;64.17
76864;BME280;65834;52.364;9.754;2023-05-10T12:28:03;100401.41;;;17.17;63.75
76864;BME280;65834;52.364;9.754;2023-05-10T12:30:36;100397.97;;;17.10;64.22
76864;BME280;65834;52.364;9.754;2023-05-10T12:33:10;100403.66;;;17.08;64.56
76864;BME280;65834;52.364;9.754;2023-05-10T12:35:45;100407.22;;;17.09;64.85
76864;BME280;65834;52.364;9.754;2023-05-10T12:38:26;100410.69;;;17.16;64.85
76864;BME280;65834;52.364;9.754;2023-05-10T12:40:57;100402.25;;;17.29;64.42
76864;BME280;65834;52.364;9.754;2023-05-10T12:43:27;100405.72;;;17.36;64.39
76864;BME280;65834;52.364;9.754;2023-05-10T12:46:04;100418.06;;;17.39;64.52
76864;BME280;65834;52.364;9.754;2023-05-10T12:48:34;100408.34;;;17.43;64.24
76864;BME280;65834;52.364;9.754;2023-05-10T12:51:05;100418.91;;;17.39;64.59
76864;BME280;65834;52.364;9.754;2023-05-10T12:53:36;100417.47;;;17.37;64.37
76864;BME280;65834;52.364;9.754;2023-05-10T12:56:08;100420.22;;;17.37;64.51
76864;BME280;65834;52.364;9.754;2023-05-10T12:58:38;100428.06;;;17.45;64.28
76864;BME280;65834;52.364;9.754;2023-05-10T13:01:10;100433.19;;;17.53;64.32
76864;BME280;65834;52.364;9.754;2023-05-10T13:03:40;100428.13;;;17.56;63.71
76864;BME280;65834;52.364;9.754;2023-05-10T13:06:09;100434.16;;;17.58;63.56
76864;BME280;65834;52.364;9.754;2023-05-10T13:08:40;100429.75;;;17.69;62.76
76864;BME280;65834;52.364;9.754;2023-05-10T13:11:09;100428.59;;;17.65;63.09
76864;BME280;65834;52.364;9.754;2023-05-10T13:13:43;100434.06;;;17.65;63.65
76864;BME280;65834;52.364;9.754;2023-05-10T13:16:15;100434.63;;;17.67;63.75